createdAt,value
2019-03-20T00:02:07.675Z,103242.16
2019-03-20T00:04:48.974Z,103247.30
2019-03-20T00:07:08.620Z,103251.21
2019-03-20T00:09:38.155Z,103251.64
2019-03-20T00:12:06.127Z,103247.25
2019-03-20T00:14:34.360Z,103239.84
2019-03-20T00:17:04.109Z,103242.02
2019-03-20T00:19:32.620Z,103245.89
2019-03-20T00:22:00.701Z,103252.30
2019-03-20T00:24:29.350Z,103257.51
2019-03-20T00:26:59.053Z,103245.70
2019-03-20T00:29:27.669Z,103233.88
2019-03-20T00:31:56.843Z,103235.66
2019-03-20T00:34:25.000Z,103226.52
2019-03-20T00:36:53.148Z,103235.23
2019-03-20T00:39:21.582Z,103230.87
2019-03-20T00:41:50.068Z,103230.33
2019-03-20T00:44:17.916Z,103228.59
2019-03-20T00:46:45.914Z,103225.59
2019-03-20T00:49:13.847Z,103229.02
2019-03-20T00:51:42.689Z,103225.47
2019-03-20T00:54:10.492Z,103219.33
2019-03-20T00:56:38.526Z,103229.72
2019-03-20T00:59:06.308Z,103233.63
2019-03-20T01:01:34.135Z,103234.94
2019-03-20T01:04:02.144Z,103226.21
2019-03-20T01:06:30.106Z,103240.11
2019-03-20T01:08:58.186Z,103234.44
2019-03-20T01:11:26.008Z,103235.71
2019-03-20T01:13:53.804Z,103233.42
2019-03-20T01:16:21.802Z,103241.88
2019-03-20T01:18:49.778Z,103234.47
2019-03-20T01:21:17.743Z,103240.20
2019-03-20T01:23:45.588Z,103234.91
2019-03-20T01:26:13.490Z,103233.55
2019-03-20T01:28:41.295Z,103236.66
2019-03-20T01:31:09.233Z,103238.79
2019-03-20T01:33:37.302Z,103237.12
2019-03-20T01:36:05.116Z,103242.27
2019-03-20T01:38:33.046Z,103236.16
2019-03-20T01:41:00.954Z,103237.50
2019-03-20T01:43:28.896Z,103224.35
2019-03-20T01:45:56.715Z,103219.68
2019-03-20T01:48:24.523Z,103220.41
2019-03-20T01:50:52.615Z,103222.17
2019-03-20T01:53:20.417Z,103222.19
2019-03-20T01:55:48.408Z,103216.56
2019-03-20T01:58:16.429Z,103221.66
2019-03-20T02:00:44.220Z,103221.98
2019-03-20T02:03:12.051Z,103217.25
2019-03-20T02:05:40.024Z,103215.41
2019-03-20T02:08:07.852Z,103222.28
2019-03-20T02:10:35.844Z,103220.95
2019-03-20T02:13:04.183Z,103227.08
2019-03-20T02:15:38.607Z,103221.03
2019-03-20T02:18:03.011Z,103217.25
2019-03-20T02:20:30.959Z,103215.94
2019-03-20T02:22:58.774Z,103214.64
2019-03-20T02:25:26.592Z,103211.09
2019-03-20T02:27:54.522Z,103218.05
2019-03-20T02:30:23.625Z,103217.55
2019-03-20T02:32:51.619Z,103213.63
2019-03-20T02:35:19.484Z,103210.66
2019-03-20T02:37:47.269Z,103215.84
2019-03-20T02:40:15.258Z,103215.70
2019-03-20T02:42:43.158Z,103216.48
2019-03-20T02:45:11.899Z,103207.83
2019-03-20T02:47:39.896Z,103198.27
2019-03-20T02:50:08.987Z,103200.36
2019-03-20T02:52:36.792Z,103191.61
2019-03-20T02:55:05.935Z,103215.84
2019-03-20T02:57:33.836Z,103218.04
2019-03-20T03:00:01.942Z,103204.88
2019-03-20T03:02:30.116Z,103200.58
2019-03-20T03:04:58.289Z,103206.28
2019-03-20T03:07:26.115Z,103203.20
2019-03-20T03:09:54.114Z,103200.13
2019-03-20T03:12:21.953Z,103206.22
2019-03-20T03:14:49.758Z,103197.66
2019-03-20T03:17:17.725Z,103206.82
2019-03-20T03:19:45.526Z,103199.72
2019-03-20T03:22:13.329Z,103203.55
2019-03-20T03:24:41.351Z,103210.80
2019-03-20T03:27:11.606Z,103214.28
2019-03-20T03:29:39.643Z,103218.98
2019-03-20T03:32:07.582Z,103218.04
2019-03-20T03:34:35.378Z,103218.17
2019-03-20T03:37:03.350Z,103216.75
2019-03-20T03:39:31.177Z,103209.20
2019-03-20T03:41:59.561Z,103212.64
2019-03-20T03:44:27.477Z,103219.09
2019-03-20T03:46:55.287Z,103213.56
2019-03-20T03:49:23.096Z,103219.45
2019-03-20T03:51:51.119Z,103215.45
2019-03-20T03:54:18.934Z,103213.23
2019-03-20T03:56:48.376Z,103205.84
2019-03-20T03:59:16.414Z,103214.99
2019-03-20T04:01:44.313Z,103210.22
2019-03-20T04:04:12.296Z,103210.47
2019-03-20T04:06:40.265Z,103217.07
2019-03-20T04:09:08.065Z,103211.41
2019-03-20T04:11:36.016Z,103214.02
2019-03-20T04:14:03.975Z,103204.89
2019-03-20T04:16:31.796Z,103189.37
2019-03-20T04:18:59.722Z,103195.16
2019-03-20T04:21:29.057Z,103205.27
2019-03-20T04:23:56.849Z,103200.47
2019-03-20T04:26:24.951Z,103204.52
2019-03-20T04:28:52.777Z,103203.30
2019-03-20T04:31:20.825Z,103204.56
2019-03-20T04:33:48.609Z,103206.84
2019-03-20T04:36:16.407Z,103213.00
2019-03-20T04:38:44.432Z,103220.88
2019-03-20T04:41:12.257Z,103213.02
2019-03-20T04:43:40.108Z,103225.16
2019-03-20T04:46:08.049Z,103229.84
2019-03-20T04:48:35.895Z,103225.34
2019-03-20T04:51:03.887Z,103235.33
2019-03-20T04:53:31.685Z,103227.36
2019-03-20T04:55:59.481Z,103220.36
2019-03-20T04:58:27.459Z,103226.02
2019-03-20T05:00:55.423Z,103230.06
2019-03-20T05:03:23.989Z,103234.41
2019-03-20T05:05:51.942Z,103235.25
2019-03-20T05:08:20.016Z,103238.77
2019-03-20T05:10:47.997Z,103234.80
2019-03-20T05:13:15.838Z,103241.36
2019-03-20T05:15:44.783Z,103251.72
2019-03-20T05:18:12.760Z,103248.18
2019-03-20T05:20:40.632Z,103251.77
2019-03-20T05:23:09.148Z,103253.89
2019-03-20T05:25:37.312Z,103250.32
2019-03-20T05:28:05.348Z,103250.06
2019-03-20T05:30:33.257Z,103253.63
2019-03-20T05:33:01.122Z,103260.25
2019-03-20T05:35:29.173Z,103270.20
2019-03-20T05:37:56.980Z,103271.09
2019-03-20T05:40:24.897Z,103272.86
2019-03-20T05:42:52.817Z,103271.55
2019-03-20T05:45:20.843Z,103272.45
2019-03-20T05:47:48.650Z,103269.38
2019-03-20T05:50:16.697Z,103272.79
2019-03-20T05:52:44.571Z,103266.19
2019-03-20T05:55:12.478Z,103257.66
2019-03-20T05:57:40.274Z,103268.45
2019-03-20T06:00:10.497Z,103273.14
2019-03-20T06:02:38.578Z,103274.75
2019-03-20T06:05:06.746Z,103275.61
2019-03-20T06:07:34.581Z,103281.54
2019-03-20T06:10:02.724Z,103286.30
2019-03-20T06:12:30.520Z,103290.23
2019-03-20T06:14:58.503Z,103287.70
2019-03-20T06:17:26.305Z,103287.27
2019-03-20T06:19:54.263Z,103293.80
2019-03-20T06:22:22.665Z,103295.81
2019-03-20T06:24:50.716Z,103297.70
2019-03-20T06:27:18.642Z,103301.64
2019-03-20T06:29:46.596Z,103309.77
2019-03-20T06:32:14.592Z,103302.81
2019-03-20T06:34:42.492Z,103310.56
2019-03-20T06:37:10.438Z,103310.67
2019-03-20T06:39:38.249Z,103316.31
2019-03-20T06:42:06.179Z,103316.92
2019-03-20T06:44:33.972Z,103317.72
2019-03-20T06:47:01.774Z,103321.16
2019-03-20T06:49:29.698Z,103326.78
2019-03-20T06:51:58.997Z,103329.67
2019-03-20T06:54:26.811Z,103329.38
2019-03-20T06:56:54.625Z,103331.92
2019-03-20T07:00:42.241Z,103335.59
2019-03-20T07:03:16.656Z,103341.09
2019-03-20T07:06:32.709Z,103339.11
2019-03-20T07:09:22.935Z,103341.02
2019-03-20T07:11:50.975Z,103340.19
2019-03-20T07:14:18.775Z,103344.41
2019-03-20T07:16:46.683Z,103342.05
2019-03-20T07:19:14.618Z,103339.35
2019-03-20T07:21:42.662Z,103344.87
2019-03-20T07:24:10.643Z,103336.60
2019-03-20T07:26:38.579Z,103335.05
2019-03-20T07:29:06.724Z,103341.50
2019-03-20T07:31:35.623Z,103347.60
2019-03-20T07:34:03.657Z,103354.45
2019-03-20T07:36:31.632Z,103350.22
2019-03-20T07:38:59.498Z,103350.08
2019-03-20T07:41:27.293Z,103353.16
2019-03-20T07:43:57.087Z,103360.58
2019-03-20T07:46:28.132Z,103353.39
2019-03-20T07:48:58.308Z,103352.61
2019-03-20T07:51:26.891Z,103338.52
2019-03-20T07:53:56.653Z,103350.59
2019-03-20T07:56:24.479Z,103350.69
2019-03-20T07:58:52.379Z,103357.02
2019-03-20T08:01:20.495Z,103358.53
2019-03-20T08:03:48.364Z,103359.59
2019-03-20T08:06:16.189Z,103364.82
2019-03-20T08:08:44.204Z,103356.45
2019-03-20T08:11:11.991Z,103357.57
2019-03-20T08:13:39.795Z,103358.20
2019-03-20T08:16:07.802Z,103359.16
2019-03-20T08:18:35.782Z,103359.97
2019-03-20T08:21:03.757Z,103364.20
2019-03-20T08:23:31.556Z,103365.22
2019-03-20T08:25:59.382Z,103369.23
2019-03-20T08:28:27.379Z,103367.44
2019-03-20T08:30:55.449Z,103368.23
2019-03-20T08:33:23.442Z,103374.12
2019-03-20T08:35:51.284Z,103380.11
2019-03-20T08:38:19.313Z,103379.11
2019-03-20T08:40:47.326Z,103385.84
2019-03-20T08:43:17.131Z,103383.50
2019-03-20T08:45:45.127Z,103387.38
2019-03-20T08:48:14.227Z,103394.44
2019-03-20T08:50:42.044Z,103389.05
2019-03-20T08:53:09.895Z,103382.72
2019-03-20T08:55:37.893Z,103388.80
2019-03-20T08:58:05.712Z,103389.42
2019-03-20T09:00:33.525Z,103393.27
2019-03-20T09:03:01.561Z,103393.27
2019-03-20T09:05:29.381Z,103402.23
2019-03-20T09:07:57.191Z,103400.92
2019-03-20T09:10:25.181Z,103404.59
2019-03-20T09:12:53.174Z,103400.80
2019-03-20T09:15:21.056Z,103400.93
2019-03-20T09:17:48.860Z,103400.95
2019-03-20T09:20:16.859Z,103405.53
2019-03-20T09:22:44.658Z,103407.05
2019-03-20T09:25:14.674Z,103417.33
2019-03-20T09:27:42.935Z,103417.00
2019-03-20T09:30:15.004Z,103424.42
2019-03-20T09:32:42.969Z,103430.38
2019-03-20T09:35:11.201Z,103437.31
2019-03-20T09:37:39.187Z,103441.59
2019-03-20T09:40:09.641Z,103446.92
2019-03-20T09:42:37.592Z,103447.98
2019-03-20T09:45:09.504Z,103452.99
2019-03-20T09:47:37.552Z,103450.57
2019-03-20T09:50:07.424Z,103451.36
2019-03-20T09:52:35.402Z,103452.91
2019-03-20T09:55:03.680Z,103454.73
2019-03-20T09:57:31.547Z,103457.23
2019-03-20T10:00:01.775Z,103452.31
2019-03-20T10:02:29.929Z,103448.73
2019-03-20T10:04:57.874Z,103451.30
2019-03-20T10:07:25.727Z,103439.86
2019-03-20T10:09:53.602Z,103442.84
2019-03-20T10:12:21.612Z,103445.71
2019-03-20T10:14:49.451Z,103439.86
2019-03-20T10:17:17.453Z,103442.77
2019-03-20T10:19:45.258Z,103447.72
2019-03-20T10:22:13.557Z,103441.88
2019-03-20T10:24:41.559Z,103446.34
2019-03-20T10:27:09.412Z,103444.73
2019-03-20T10:29:37.238Z,103444.75
2019-03-20T10:32:05.183Z,103442.73
2019-03-20T10:34:39.344Z,103436.74
2019-03-20T10:37:03.034Z,103436.74
2019-03-20T10:39:31.245Z,103447.38
2019-03-20T10:41:59.084Z,103441.36
2019-03-20T10:44:27.114Z,103450.28
2019-03-20T10:46:59.002Z,103445.68
2019-03-20T10:49:26.778Z,103445.19
2019-03-20T10:51:54.905Z,103449.66
2019-03-20T10:54:23.947Z,103449.77
2019-03-20T10:56:51.762Z,103453.70
2019-03-20T10:59:19.699Z,103462.27
2019-03-20T11:01:47.599Z,103456.49
2019-03-20T11:04:15.402Z,103460.45
2019-03-20T11:06:43.235Z,103459.02
2019-03-20T11:09:18.226Z,103467.59
2019-03-20T11:11:41.006Z,103467.14
2019-03-20T11:14:09.017Z,103467.94
2019-03-20T11:16:36.824Z,103476.20
2019-03-20T11:19:04.944Z,103481.48
2019-03-20T11:21:32.942Z,103473.83
2019-03-20T11:24:00.764Z,103477.02
2019-03-20T11:26:28.891Z,103482.89
2019-03-20T11:28:56.861Z,103485.66
2019-03-20T11:31:24.685Z,103494.09
2019-03-20T11:33:52.810Z,103492.35
2019-03-20T11:36:20.637Z,103497.08
2019-03-20T11:38:49.530Z,103496.22
2019-03-20T11:41:17.523Z,103491.04
2019-03-20T11:43:45.321Z,103492.96
2019-03-20T11:46:13.117Z,103493.91
2019-03-20T11:48:46.000Z,103492.20
2019-03-20T11:51:13.976Z,103493.25
2019-03-20T11:53:42.136Z,103487.66
2019-03-20T11:56:09.944Z,103492.83
2019-03-20T11:58:37.970Z,103485.30
2019-03-20T12:01:06.083Z,103478.55
2019-03-20T12:03:33.903Z,103480.63
2019-03-20T12:06:01.890Z,103477.51
2019-03-20T12:08:29.797Z,103470.67
2019-03-20T12:10:58.686Z,103468.00
2019-03-20T12:13:26.649Z,103474.27
2019-03-20T12:15:54.447Z,103469.98
2019-03-20T12:18:22.493Z,103470.74
2019-03-20T12:20:50.311Z,103470.70
2019-03-20T12:23:18.123Z,103477.02
2019-03-20T12:25:49.056Z,103469.94
2019-03-20T12:28:16.976Z,103473.50
2019-03-20T12:30:44.855Z,103471.84
2019-03-20T12:33:12.875Z,103465.19
2019-03-20T12:35:40.830Z,103475.88
2019-03-20T12:38:14.823Z,103469.75
2019-03-20T12:40:38.663Z,103470.35
2019-03-20T12:43:06.578Z,103469.14
2019-03-20T12:45:34.718Z,103464.15
2019-03-20T12:48:03.995Z,103473.06
2019-03-20T12:50:31.815Z,103472.81
2019-03-20T12:53:01.783Z,103465.84
2019-03-20T12:55:31.209Z,103470.59
2019-03-20T12:57:59.320Z,103472.98
2019-03-20T13:00:27.698Z,103468.42
2019-03-20T13:02:55.667Z,103473.87
2019-03-20T13:05:23.510Z,103474.03
2019-03-20T13:07:51.473Z,103477.90
2019-03-20T13:10:19.526Z,103473.58
2019-03-20T13:12:47.328Z,103474.50
2019-03-20T13:15:18.053Z,103473.33
2019-03-20T13:17:46.127Z,103467.78
2019-03-20T13:20:13.926Z,103467.72
2019-03-20T13:22:42.378Z,103466.98
2019-03-20T13:25:11.845Z,103465.38
2019-03-20T13:27:39.758Z,103470.28
2019-03-20T13:30:26.969Z,103468.99
2019-03-20T13:32:56.789Z,103461.94
2019-03-20T13:35:24.612Z,103457.28
2019-03-20T13:37:52.626Z,103459.59
2019-03-20T13:40:20.485Z,103461.62
2019-03-20T13:42:48.426Z,103461.47
2019-03-20T13:45:16.829Z,103468.23
2019-03-20T13:47:44.687Z,103476.00
2019-03-20T13:50:13.448Z,103460.87
2019-03-20T13:52:42.334Z,103469.19
2019-03-20T13:55:10.658Z,103467.95
2019-03-20T13:57:38.483Z,103463.16
2019-03-20T14:00:12.798Z,103461.90
2019-03-20T14:02:40.590Z,103458.55
2019-03-20T14:05:08.399Z,103451.64
2019-03-20T14:07:36.335Z,103448.28
2019-03-20T14:10:05.022Z,103448.64
2019-03-20T14:12:33.564Z,103446.27
2019-03-20T14:15:01.657Z,103454.98
2019-03-20T14:17:29.729Z,103456.98
2019-03-20T14:19:57.566Z,103449.80
2019-03-20T14:22:25.378Z,103446.38
2019-03-20T14:24:53.372Z,103441.73
2019-03-20T14:27:21.333Z,103451.38
2019-03-20T14:29:49.173Z,103447.00
2019-03-20T14:32:17.109Z,103444.20
2019-03-20T14:34:45.133Z,103440.84
2019-03-20T14:37:13.002Z,103440.16
2019-03-20T14:39:41.183Z,103439.83
2019-03-20T14:42:09.179Z,103442.83
2019-03-20T14:44:37.195Z,103432.89
2019-03-20T14:47:05.178Z,103436.92
2019-03-20T14:49:32.994Z,103441.72
2019-03-20T14:52:01.051Z,103444.94
2019-03-20T14:54:28.873Z,103439.05
2019-03-20T14:56:59.406Z,103439.35
2019-03-20T14:59:27.443Z,103443.56
2019-03-20T15:01:55.309Z,103442.66
2019-03-20T15:04:23.196Z,103442.27
2019-03-20T15:06:51.559Z,103436.17
2019-03-20T15:09:19.541Z,103440.94
2019-03-20T15:11:47.341Z,103432.11
2019-03-20T15:14:15.397Z,103437.98
2019-03-20T15:16:43.469Z,103449.95
2019-03-20T15:19:11.403Z,103436.29
2019-03-20T15:21:39.238Z,103434.75
2019-03-20T15:24:07.271Z,103432.97
2019-03-20T15:26:35.117Z,103430.22
2019-03-20T15:29:03.068Z,103433.14
2019-03-20T15:31:31.104Z,103434.28
2019-03-20T15:33:58.924Z,103434.88
2019-03-20T15:36:26.735Z,103433.89
2019-03-20T15:38:54.704Z,103429.59
2019-03-20T15:41:22.848Z,103430.59
2019-03-20T15:43:50.667Z,103431.73
2019-03-20T15:46:18.831Z,103431.18
2019-03-20T15:48:46.753Z,103440.41
2019-03-20T15:51:14.610Z,103439.08
2019-03-20T15:53:42.649Z,103439.20
2019-03-20T15:56:10.453Z,103433.84
2019-03-20T15:58:38.279Z,103436.66
2019-03-20T16:01:08.105Z,103432.29
2019-03-20T16:03:36.970Z,103436.98
2019-03-20T16:06:04.982Z,103436.24
2019-03-20T16:08:34.690Z,103434.83
2019-03-20T16:11:06.472Z,103442.05
2019-03-20T16:13:32.592Z,103437.14
2019-03-20T16:16:00.422Z,103436.69
2019-03-20T16:18:28.250Z,103441.14
2019-03-20T16:20:56.255Z,103436.05
2019-03-20T16:23:24.238Z,103433.37
2019-03-20T16:25:52.180Z,103439.78
2019-03-20T16:28:19.983Z,103440.28
2019-03-20T16:30:48.399Z,103441.80
2019-03-20T16:33:16.243Z,103437.03
2019-03-20T16:35:44.351Z,103436.78
2019-03-20T16:38:12.211Z,103437.16
2019-03-20T16:40:41.288Z,103443.77
2019-03-20T16:43:09.424Z,103434.67
2019-03-20T16:45:37.746Z,103439.47
2019-03-20T16:48:05.908Z,103448.80
2019-03-20T16:50:33.935Z,103448.90
2019-03-20T16:53:01.750Z,103465.09
2019-03-20T16:55:29.838Z,103464.05
2019-03-20T16:57:57.848Z,103468.02
2019-03-20T17:00:28.063Z,103474.31
2019-03-20T17:02:56.001Z,103467.70
2019-03-20T17:05:28.264Z,103475.14
2019-03-20T17:07:56.118Z,103475.62
2019-03-20T17:10:33.300Z,103491.89
2019-03-20T17:13:01.194Z,103488.95
2019-03-20T17:15:29.658Z,103489.17
2019-03-20T17:17:57.708Z,103496.70
2019-03-20T17:20:25.759Z,103486.48
2019-03-20T17:22:53.868Z,103491.94
2019-03-20T17:25:21.710Z,103490.11
2019-03-20T17:27:49.555Z,103496.86
2019-03-20T17:30:20.929Z,103493.88
2019-03-20T17:32:48.770Z,103493.88
2019-03-20T17:35:16.808Z,103494.34
2019-03-20T17:37:44.630Z,103501.23
2019-03-20T17:40:14.774Z,103500.73
2019-03-20T17:42:42.873Z,103500.64
2019-03-20T17:45:12.371Z,103492.40
2019-03-20T17:47:40.214Z,103493.97
2019-03-20T17:50:12.819Z,103491.88
2019-03-20T17:52:40.795Z,103495.53
2019-03-20T17:55:08.955Z,103496.00
2019-03-20T17:57:36.794Z,103492.53
2019-03-20T18:00:08.748Z,103504.26
2019-03-20T18:02:36.522Z,103501.59
2019-03-20T18:05:04.992Z,103500.42
2019-03-20T18:07:32.812Z,103505.05
2019-03-20T18:10:00.744Z,103505.09
2019-03-20T18:12:28.887Z,103511.59
2019-03-20T18:14:56.963Z,103512.58
2019-03-20T18:17:24.797Z,103510.23
2019-03-20T18:19:52.720Z,103516.59
2019-03-20T18:22:20.544Z,103521.75
2019-03-20T18:24:48.535Z,103520.63
2019-03-20T18:27:16.529Z,103523.10
2019-03-20T18:29:44.333Z,103530.17
2019-03-20T18:32:12.373Z,103535.12
2019-03-20T18:34:40.193Z,103537.36
2019-03-20T18:37:08.030Z,103539.77
2019-03-20T18:39:36.020Z,103531.56
2019-03-20T18:42:04.105Z,103537.11
2019-03-20T18:44:32.017Z,103536.79
2019-03-20T18:47:00.035Z,103527.44
2019-03-20T18:49:27.998Z,103530.75
2019-03-20T18:51:55.875Z,103531.53
2019-03-20T18:54:23.705Z,103534.20
2019-03-20T18:56:51.702Z,103535.83
2019-03-20T18:59:23.389Z,103541.18
2019-03-20T19:01:51.552Z,103539.21
2019-03-20T19:04:19.523Z,103542.50
2019-03-20T19:06:47.361Z,103535.34
2019-03-20T19:09:15.204Z,103548.39
2019-03-20T19:11:43.333Z,103548.42
2019-03-20T19:14:11.304Z,103547.96
2019-03-20T19:16:39.352Z,103544.24
2019-03-20T19:19:07.219Z,103553.53
2019-03-20T19:21:35.191Z,103548.73
2019-03-20T19:24:04.486Z,103548.27
2019-03-20T19:26:32.725Z,103548.63
2019-03-20T19:29:01.144Z,103544.08
2019-03-20T19:31:29.340Z,103546.17
2019-03-20T19:33:57.157Z,103549.16
2019-03-20T19:36:26.396Z,103553.98
2019-03-20T19:38:56.844Z,103560.07
2019-03-20T19:41:24.858Z,103559.88
2019-03-20T19:43:54.790Z,103556.75
2019-03-20T19:46:24.723Z,103560.66
2019-03-20T19:48:53.184Z,103563.41
2019-03-20T19:51:21.244Z,103564.26
2019-03-20T19:53:49.247Z,103557.98
2019-03-20T19:56:17.292Z,103559.34
2019-03-20T19:58:45.487Z,103564.22
2019-03-20T20:01:13.561Z,103567.23
2019-03-20T20:03:41.380Z,103564.76
2019-03-20T20:06:11.281Z,103561.27
2019-03-20T20:08:39.127Z,103556.86
2019-03-20T20:11:06.968Z,103560.00
2019-03-20T20:13:34.803Z,103564.52
2019-03-20T20:16:02.850Z,103562.73
2019-03-20T20:18:30.623Z,103566.22
2019-03-20T20:20:59.980Z,103559.68
2019-03-20T20:23:27.975Z,103561.53
2019-03-20T20:25:55.877Z,103562.03
2019-03-20T20:28:23.709Z,103567.27
2019-03-20T20:30:51.791Z,103565.63
2019-03-20T20:33:19.632Z,103569.64
2019-03-20T20:35:47.409Z,103567.47
2019-03-20T20:38:15.451Z,103567.08
2019-03-20T20:40:43.551Z,103567.19
2019-03-20T20:43:11.395Z,103571.56
2019-03-20T20:45:39.198Z,103570.25
2019-03-20T20:48:07.213Z,103565.91
2019-03-20T20:50:36.877Z,103569.47
2019-03-20T20:53:04.697Z,103569.04
2019-03-20T20:55:32.658Z,103567.79
2019-03-20T20:58:00.458Z,103567.11
2019-03-20T21:00:28.292Z,103568.09
2019-03-20T21:02:56.265Z,103556.39
2019-03-20T21:05:25.146Z,103563.06
2019-03-20T21:07:53.142Z,103558.86
2019-03-20T21:10:22.088Z,103559.41
2019-03-20T21:12:56.314Z,103561.77
2019-03-20T21:15:41.677Z,103560.11
2019-03-20T21:19:21.790Z,103557.12
2019-03-20T21:22:46.695Z,103558.64
2019-03-20T21:25:20.572Z,103554.56
2019-03-20T21:29:06.553Z,103547.36
2019-03-20T21:31:40.326Z,103551.70
2019-03-20T21:35:33.813Z,103554.00
2019-03-20T21:38:13.517Z,103568.80
2019-03-20T21:41:39.541Z,103558.45
2019-03-20T21:45:07.396Z,103555.02
2019-03-20T21:47:34.943Z,103556.34
2019-03-20T21:52:48.651Z,103549.41
2019-03-20T21:56:15.345Z,103553.03
2019-03-20T21:59:01.264Z,103552.22
2019-03-20T22:02:14.191Z,103551.67
2019-03-20T22:04:43.071Z,103553.42
2019-03-20T22:07:12.557Z,103552.61
2019-03-20T22:10:37.781Z,103543.45
2019-03-20T22:13:38.970Z,103546.55
2019-03-20T22:17:15.440Z,103544.87
2019-03-20T22:20:23.840Z,103546.27
2019-03-20T22:23:54.636Z,103548.78
2019-03-20T22:30:07.849Z,103540.91
2019-03-20T22:33:34.563Z,103557.67
2019-03-20T22:36:18.348Z,103543.67
2019-03-20T22:40:08.546Z,103540.27
2019-03-20T22:42:52.831Z,103538.09
2019-03-20T22:46:33.935Z,103546.94
2019-03-20T22:49:43.503Z,103547.36
2019-03-20T22:53:40.052Z,103544.33
2019-03-20T22:59:41.696Z,103541.19
2019-03-20T23:02:26.092Z,103548.33
2019-03-20T23:04:57.967Z,103546.51
2019-03-20T23:07:27.054Z,103544.72
2019-03-20T23:09:56.001Z,103544.17
2019-03-20T23:12:24.657Z,103548.44
2019-03-20T23:14:53.410Z,103543.08
2019-03-20T23:17:22.480Z,103542.13
2019-03-20T23:19:53.248Z,103549.16
2019-03-20T23:22:22.393Z,103543.00
2019-03-20T23:24:51.530Z,103545.17
2019-03-20T23:27:27.253Z,103550.78
2019-03-20T23:29:56.243Z,103553.31
2019-03-20T23:32:26.347Z,103548.47
2019-03-20T23:34:56.209Z,103555.84
2019-03-20T23:37:25.079Z,103542.59
2019-03-20T23:39:53.886Z,103546.50
2019-03-20T23:42:24.203Z,103538.98
2019-03-20T23:44:53.337Z,103547.59
2019-03-20T23:47:39.512Z,103547.50
2019-03-20T23:50:08.918Z,103538.72
2019-03-20T23:52:37.654Z,103543.42
2019-03-20T23:55:09.032Z,103539.00
2019-03-20T23:57:37.765Z,103543.77
